Time;durP1;ratioP1;P1;durP2;ratioP2;P2;SDS_P1;SDS_P2;PMS_P1;PMS_P2;Temp;Humidity;BMP_temperature;BMP_pressure;BME280_temperature;BME280_humidity;BME280_pressure;Samples;Min_cycle;Max_cycle;Signal;HPM_P1;HPM_P2
2022/05/18 00:03:05;;;;;;;3.20;1.70;;;;;;;18.62;54.83;100851.06;18497966;32;20127;-66
2022/05/18 00:13:09;;;;;;;4.47;1.62;;;;;;;18.41;54.77;100854.28;18497473;32;20448;-66
2022/05/18 00:23:13;;;;;;;2.78;1.60;;;;;;;18.41;54.11;100872.78;18497032;32;20119;-66
2022/05/18 00:33:16;;;;;;;2.90;1.50;;;;;;;18.38;53.86;100869.34;18497253;32;20096;-66
2022/05/18 00:43:37;;;;;;;3.03;1.75;;;;;;;18.69;52.61;100871.13;18496933;32;20126;-66
2022/05/18 00:53:43;;;;;;;2.92;1.20;;;;;;;18.64;52.04;100871.25;18496547;32;20100;-66
2022/05/18 01:03:49;;;;;;;3.65;1.55;;;;;;;18.57;53.29;100901.41;18496393;32;20100;-66
2022/05/18 01:13:53;;;;;;;3.47;1.65;;;;;;;18.19;53.78;100914.75;18495702;32;20718;-66
2022/05/18 01:24:01;;;;;;;3.25;1.50;;;;;;;17.84;54.05;100919.13;18495425;32;20388;-66
2022/05/18 01:34:06;;;;;;;3.78;1.65;;;;;;;17.67;54.60;100922.16;18493790;32;20385;-66
2022/05/18 01:44:09;;;;;;;7.53;1.77;;;;;;;17.30;55.05;100940.56;18494604;32;20437;-66
2022/05/18 01:54:14;;;;;;;3.53;1.62;;;;;;;16.76;56.95;100946.91;18493896;32;20400;-66
2022/05/18 02:04:17;;;;;;;3.97;1.80;;;;;;;16.72;58.37;100950.50;18493372;32;20167;-65
2022/05/18 02:14:23;;;;;;;3.70;1.83;;;;;;;16.05;61.62;100972.75;18492532;32;20507;-66
2022/05/18 02:24:26;;;;;;;4.12;2.22;;;;;;;15.72;64.00;100988.09;18492450;32;20089;-65
2022/05/18 02:34:30;;;;;;;4.00;1.95;;;;;;;16.16;62.75;101004.16;18491498;32;20096;-65
2022/05/18 02:44:33;;;;;;;3.90;1.80;;;;;;;15.13;66.30;101021.31;18498582;32;20111;-65
2022/05/18 03:04:58;;;;;;;5.95;2.22;;;;;;;14.57;67.97;101035.81;18499685;32;20707;-65
2022/05/18 03:15:04;;;;;;;3.95;1.83;;;;;;;14.48;68.22;101054.28;18499372;32;20121;-65
2022/05/18 03:25:08;;;;;;;4.65;1.95;;;;;;;14.25;69.56;101071.09;18499534;32;20453;-65
2022/05/18 03:35:12;;;;;;;4.40;2.03;;;;;;;14.59;69.01;101085.72;18498919;32;20179;-65
2022/05/18 03:45:16;;;;;;;5.03;1.90;;;;;;;14.59;68.61;101121.63;18498682;32;20097;-65
2022/05/18 03:55:21;;;;;;;5.12;1.90;;;;;;;15.06;65.84;101128.28;18497156;32;20410;-66
2022/05/18 04:05:25;;;;;;;3.30;1.83;;;;;;;14.65;66.38;101150.50;18499310;32;20088;-65
2022/05/18 04:15:30;;;;;;;2.55;1.55;;;;;;;15.05;64.36;101160.72;18497947;32;20115;-65
2022/05/18 04:25:34;;;;;;;3.22;1.70;;;;;;;15.63;61.09;101182.06;18497764;32;20181;-65
2022/05/18 04:35:39;;;;;;;4.65;1.33;;;;;;;17.28;55.53;101198.31;18497365;32;20101;-65
2022/05/18 04:45:44;;;;;;;4.12;1.30;;;;;;;17.37;55.01;101210.47;18498379;32;20097;-65
2022/05/18 04:55:51;;;;;;;4.50;2.03;;;;;;;17.45;52.62;101221.75;18496837;32;20245;-65
2022/05/18 05:05:56;;;;;;;3.00;1.42;;;;;;;17.58;52.04;101246.16;18496118;32;20141;-65
2022/05/18 05:16:06;;;;;;;5.55;1.30;;;;;;;18.01;51.66;101264.72;18494603;32;20088;-65
2022/05/18 05:26:09;;;;;;;3.60;1.33;;;;;;;18.36;48.38;101276.41;18496864;32;20076;-65
2022/05/18 05:36:14;;;;;;;2.35;1.17;;;;;;;19.13;44.28;101289.72;18494753;32;20096;-65
2022/05/18 05:46:17;;;;;;;2.17;1.10;;;;;;;19.68;41.75;101306.91;18494193;32;20112;-65
2022/05/18 05:56:22;;;;;;;2.92;1.40;;;;;;;19.46;41.31;101325.13;18492597;32;20111;-65
2022/05/18 06:06:25;;;;;;;3.05;1.15;;;;;;;18.72;44.49;101345.28;18491190;32;20100;-65
2022/05/18 06:16:35;;;;;;;1.60;0.90;;;;;;;19.20;41.24;101377.78;18495481;32;20096;-65
2022/05/18 06:26:39;;;;;;;2.58;1.02;;;;;;;18.86;36.03;101392.59;18500562;32;20097;-65
2022/05/18 06:36:43;;;;;;;1.52;0.80;;;;;;;18.83;35.16;101416.47;18500588;32;20104;-65
2022/05/18 06:46:47;;;;;;;2.35;1.17;;;;;;;18.46;33.93;101435.72;18500102;32;20100;-65
2022/05/18 06:56:52;;;;;;;2.70;0.65;;;;;;;18.21;33.18;101453.75;18499982;32;20096;-64
2022/05/18 07:06:55;;;;;;;1.30;1.02;;;;;;;17.53;34.52;101475.03;18494407;32;20464;-65
2022/05/18 07:17:00;;;;;;;2.17;0.70;;;;;;;18.47;33.10;101481.50;18498397;32;20089;-64
2022/05/18 07:27:04;;;;;;;1.48;0.60;;;;;;;19.57;31.75;101489.06;18498762;32;20432;-64
2022/05/18 07:37:09;;;;;;;2.25;0.90;;;;;;;21.54;30.91;101504.28;18496324;32;20115;-65
2022/05/18 07:47:13;;;;;;;2.12;0.77;;;;;;;24.27;26.87;101506.06;18498448;32;20103;-66
2022/05/18 07:57:18;;;;;;;2.25;0.70;;;;;;;22.06;27.84;101517.72;18498236;32;20388;-65
2022/05/18 08:07:21;;;;;;;2.90;0.90;;;;;;;21.09;29.35;101535.66;18497296;32;20096;-65
2022/05/18 08:17:26;;;;;;;1.45;0.68;;;;;;;20.96;26.62;101550.19;18455006;32;20093;-64
2022/05/18 08:27:29;;;;;;;3.15;0.80;;;;;;;21.09;28.74;101567.53;18491567;32;20182;-65
2022/05/18 08:37:39;;;;;;;2.15;0.80;;;;;;;20.79;29.52;101583.34;18495895;32;20110;-64
2022/05/18 08:47:44;;;;;;;2.83;0.90;;;;;;;20.90;29.10;101593.69;18494190;32;20380;-67
2022/05/18 08:57:52;;;;;;;1.77;0.60;;;;;;;21.63;28.26;101594.34;18492070;32;20096;-65
2022/05/18 09:08:01;;;;;;;1.20;0.80;;;;;;;21.02;27.65;101597.78;18493895;32;20365;-65
2022/05/18 09:18:13;;;;;;;2.35;0.80;;;;;;;21.80;27.64;101595.63;18494800;32;20121;-65
2022/05/18 09:28:24;;;;;;;2.42;0.93;;;;;;;22.51;29.32;101584.53;18495083;32;20081;-65
2022/05/18 09:38:34;;;;;;;1.98;0.75;;;;;;;22.13;28.42;101588.38;18493645;32;20706;-65
2022/05/18 09:48:39;;;;;;;2.00;0.60;;;;;;;23.11;26.45;101587.78;18495453;32;20110;-65
2022/05/18 09:58:46;;;;;;;1.65;0.90;;;;;;;22.84;25.78;101593.16;18502416;32;20140;-65
2022/05/18 10:08:52;;;;;;;2.70;1.00;;;;;;;21.82;29.29;101601.78;18500704;32;20089;-65
2022/05/18 10:19:00;;;;;;;3.03;0.90;;;;;;;22.97;24.80;101585.63;18500349;32;21107;-66
2022/05/18 10:29:07;;;;;;;4.82;1.17;;;;;;;22.69;26.71;101581.25;18500784;32;20107;-65
2022/05/18 10:39:12;;;;;;;0.73;0.60;;;;;;;22.50;26.44;101575.72;18499670;32;20107;-65
2022/05/18 10:49:27;;;;;;;1.70;0.75;;;;;;;22.97;26.44;101569.63;18500281;32;20080;-65
2022/05/18 10:59:38;;;;;;;1.02;0.50;;;;;;;23.21;25.28;101563.47;18485187;32;20115;-65
2022/05/18 11:09:42;;;;;;;1.60;0.50;;;;;;;22.79;24.96;101557.88;18498754;32;20100;-65
2022/05/18 11:19:50;;;;;;;0.37;0.30;;;;;;;24.20;20.45;101543.69;18497864;32;20114;-66
2022/05/18 11:30:01;;;;;;;0.47;0.30;;;;;;;24.21;20.27;101548.09;18499165;32;20341;-66
2022/05/18 11:40:12;;;;;;;3.85;0.93;;;;;;;24.45;13.97;101536.47;18483580;32;20118;-65
2022/05/18 11:50:19;;;;;;;;;;;;;;;23.50;13.79;101540.22;18484099;32;20104;-65
2022/05/18 12:00:44;;;;;;;0.35;0.35;;;;;;;24.86;15.30;101535.63;18499470;32;19996;-65
2022/05/18 12:10:51;;;;;;;0.55;0.30;;;;;;;24.61;13.78;101536.66;18481469;32;20150;-65
2022/05/18 12:21:00;;;;;;;1.77;0.45;;;;;;;23.63;14.40;101525.50;18496827;32;20081;-65
2022/05/18 12:31:03;;;;;;;0.40;0.25;;;;;;;25.36;14.74;101539.56;18496838;32;20140;-66
2022/05/18 12:41:10;;;;;;;1.58;0.40;;;;;;;25.21;13.96;101531.34;18495766;32;20088;-65
2022/05/18 12:51:34;;;;;;;1.33;0.43;;;;;;;24.56;14.69;101536.84;18482129;32;458186;-66
2022/05/18 13:01:41;;;;;;;1.45;0.40;;;;;;;24.61;14.18;101536.66;18495040;32;20114;-66
2022/05/18 13:11:48;;;;;;;1.20;0.30;;;;;;;24.97;15.09;101541.34;18496042;32;20092;-65
2022/05/18 13:22:40;;;;;;;0.43;0.37;;;;;;;24.43;17.13;101531.19;18495305;32;20382;-66
2022/05/18 13:32:44;;;;;;;15.13;0.80;;;;;;;25.22;18.35;101521.50;18495360;32;20111;-66
2022/05/18 13:42:49;;;;;;;0.52;0.37;;;;;;;25.24;13.60;101525.00;18494859;32;20105;-66
2022/05/18 13:52:54;;;;;;;0.40;0.30;;;;;;;25.93;14.01;101511.09;18493553;32;20386;-65
2022/05/18 14:03:01;;;;;;;0.25;0.22;;;;;;;24.10;13.50;101523.69;18492784;32;20097;-66
2022/05/18 14:13:25;;;;;;;1.12;0.32;;;;;;;24.35;13.53;101517.28;18493619;32;20081;-66
2022/05/18 14:23:37;;;;;;;0.30;0.30;;;;;;;25.11;14.56;101507.78;18483201;32;20152;-66
2022/05/18 14:33:43;;;;;;;0.75;0.40;;;;;;;23.38;15.82;101510.47;18482769;32;20097;-66
2022/05/18 14:43:48;;;;;;;1.87;0.40;;;;;;;23.37;14.25;101510.50;18481323;32;20108;-67
2022/05/18 14:53:55;;;;;;;0.75;0.40;;;;;;;23.33;15.95;101512.41;18498571;32;20127;-66
2022/05/18 15:04:02;;;;;;;0.52;0.40;;;;;;;23.92;14.14;101523.47;18497338;32;20111;-66
2022/05/18 15:14:18;;;;;;;1.77;0.35;;;;;;;23.57;15.69;101520.41;18497055;32;20081;-66
2022/05/18 15:24:29;;;;;;;0.35;0.30;;;;;;;23.94;14.85;101513.59;18479112;32;20435;-66
2022/05/18 15:34:34;;;;;;;1.58;0.50;;;;;;;23.73;15.34;101506.47;18496362;32;20365;-66
2022/05/18 15:44:39;;;;;;;1.00;0.40;;;;;;;23.51;15.73;101504.66;18495853;32;20103;-66
2022/05/18 15:54:45;;;;;;;0.40;0.32;;;;;;;23.92;15.83;101504.81;18481592;32;20081;-67
2022/05/18 16:04:50;;;;;;;1.20;0.40;;;;;;;24.18;13.76;101513.53;18492519;32;20097;-66
2022/05/18 16:14:53;;;;;;;0.47;0.30;;;;;;;23.24;15.82;101502.97;18494617;32;20080;-66
2022/05/18 16:24:59;;;;;;;9.90;4.28;;;;;;;23.60;14.92;101504.28;18482281;32;20448;-66
2022/05/18 16:35:10;;;;;;;0.65;0.52;;;;;;;23.01;17.68;101522.47;18495311;32;20085;-66
2022/05/18 16:45:17;;;;;;;2.35;0.80;;;;;;;22.92;16.83;101514.81;18495061;32;20107;-66
2022/05/18 16:55:20;;;;;;;1.50;0.57;;;;;;;23.11;18.74;101523.88;18494466;32;20179;-67
2022/05/18 17:15:46;;;;;;;2.42;0.52;;;;;;;22.61;20.15;101529.25;18492215;32;20096;-66
2022/05/18 17:25:51;;;;;;;1.58;0.50;;;;;;;21.96;22.10;101541.06;18494204;32;20127;-66
2022/05/18 17:35:55;;;;;;;2.15;0.65;;;;;;;21.50;26.25;101551.31;18493912;32;20084;-66
2022/05/18 17:45:59;;;;;;;4.32;0.73;;;;;;;20.87;27.81;101554.84;18493934;32;20085;-66
2022/05/18 17:56:03;;;;;;;2.53;0.82;;;;;;;19.92;33.58;101562.41;18479625;32;20429;-66
2022/05/18 18:06:07;;;;;;;0.57;0.50;;;;;;;19.18;34.63;101561.34;18477430;32;20092;-66
2022/05/18 18:16:11;;;;;;;0.50;0.50;;;;;;;18.58;34.28;101566.78;18495459;32;20115;-66
2022/05/18 18:26:20;;;;;;;0.80;0.62;;;;;;;17.63;36.29;101568.19;18485072;32;20374;-66
2022/05/18 18:36:26;;;;;;;0.65;0.65;;;;;;;17.16;37.00;101575.75;18498785;32;20439;-66
2022/05/18 18:46:34;;;;;;;1.67;0.73;;;;;;;15.93;41.88;101577.66;18481836;32;20181;-66
2022/05/18 18:56:38;;;;;;;2.28;0.80;;;;;;;15.48;43.33;101583.06;18484462;32;20448;-66
2022/05/18 19:06:44;;;;;;;1.98;0.70;;;;;;;15.27;44.57;101599.81;18497892;32;20109;-66
2022/05/18 19:16:49;;;;;;;2.42;0.82;;;;;;;14.32;47.70;101612.06;18497773;32;20089;-66
2022/05/18 19:26:53;;;;;;;1.67;0.93;;;;;;;13.38;48.50;101626.56;18495886;32;20118;-66
2022/05/18 19:36:57;;;;;;;2.28;1.23;;;;;;;13.42;48.06;101637.09;18483085;32;20096;-67
2022/05/18 19:47:02;;;;;;;1.98;1.20;;;;;;;12.69;50.38;101633.06;18494406;32;20115;-65
2022/05/18 19:57:06;;;;;;;4.57;1.80;;;;;;;12.70;51.75;101647.91;18492252;32;20149;-66
2022/05/18 20:07:12;;;;;;;12.48;3.12;;;;;;;12.39;52.48;101655.47;18496373;32;20100;-65
2022/05/18 20:17:16;;;;;;;9.27;2.60;;;;;;;11.90;52.75;101673.25;18495968;32;20397;-65
2022/05/18 20:27:20;;;;;;;6.25;2.10;;;;;;;12.03;51.61;101669.03;18495340;32;20108;-65
2022/05/18 20:37:23;;;;;;;11.23;3.10;;;;;;;11.26;53.49;101668.84;18491633;32;20116;-65
2022/05/18 20:47:32;;;;;;;8.52;2.67;;;;;;;10.86;55.74;101686.47;18490931;32;20433;-66
2022/05/18 20:57:38;;;;;;;3.25;2.03;;;;;;;10.73;56.17;101690.63;18492761;32;20126;-65
2022/05/18 21:07:42;;;;;;;3.12;1.60;;;;;;;10.63;56.08;101698.31;18494142;32;20136;-65
2022/05/18 21:17:53;;;;;;;;;;;;;;;10.33;57.46;101701.16;18495598;32;20098;-65
2022/05/18 21:27:57;;;;;;;4.37;1.48;;;;;;;10.05;58.10;101718.88;18496040;32;19980;-65
2022/05/18 21:38:01;;;;;;;4.57;1.30;;;;;;;9.88;60.46;101731.56;18495324;32;20165;-65
2022/05/18 21:48:06;;;;;;;2.30;1.05;;;;;;;9.97;59.85;101731.75;18493278;32;20154;-65
2022/05/18 21:58:12;;;;;;;4.07;1.48;;;;;;;9.71;58.25;101742.47;18493814;32;20111;-65
2022/05/18 22:08:17;;;;;;;2.08;1.20;;;;;;;9.28;59.54;101751.00;18493640;32;20093;-65
2022/05/18 22:18:20;;;;;;;2.00;1.20;;;;;;;9.63;59.17;101755.34;18491541;32;20115;-65
2022/05/18 22:28:26;;;;;;;1.85;1.15;;;;;;;9.12;61.09;101743.69;18492386;32;20100;-65
2022/05/18 22:38:29;;;;;;;1.30;0.98;;;;;;;9.17;60.83;101747.25;18490300;32;20104;-64
2022/05/18 22:48:34;;;;;;;1.55;1.00;;;;;;;8.64;62.64;101743.31;18491358;32;20182;-65
2022/05/18 22:58:37;;;;;;;3.17;1.27;;;;;;;8.77;62.39;101735.81;18495611;32;20092;-65
2022/05/18 23:08:41;;;;;;;2.10;1.17;;;;;;;8.66;63.56;101739.03;18500634;32;20372;-65
2022/05/18 23:18:45;;;;;;;2.78;1.10;;;;;;;7.99;64.92;101739.69;18499787;32;20092;-63
2022/05/18 23:28:50;;;;;;;1.25;1.10;;;;;;;8.69;61.89;101733.88;18499517;32;20100;-63
2022/05/18 23:38:54;;;;;;;1.35;0.80;;;;;;;7.71;64.22;101743.19;18500338;32;20089;-63
2022/05/18 23:49:00;;;;;;;4.55;1.55;;;;;;;8.49;61.37;101743.72;18498883;32;20694;-64
2022/05/18 23:59:06;;;;;;;2.92;1.37;;;;;;;7.94;64.68;101742.97;18498207;32;20097;-63
